createdAt,value
2018-04-25T00:01:20.076Z,3.50
2018-04-25T00:03:48.384Z,4.37
2018-04-25T00:06:16.695Z,4.40
2018-04-25T00:08:45.818Z,4.17
2018-04-25T00:11:14.104Z,4.50
2018-04-25T00:13:43.172Z,4.20
2018-04-25T00:16:11.463Z,4.90
2018-04-25T00:18:40.531Z,4.50
2018-04-25T00:21:08.907Z,5.10
2018-04-25T00:23:37.450Z,4.93
2018-04-25T00:26:05.763Z,4.90
2018-04-25T00:28:34.054Z,4.50
2018-04-25T00:31:02.347Z,4.77
2018-04-25T00:33:31.434Z,4.83
2018-04-25T00:36:00.486Z,5.27
2018-04-25T00:38:28.768Z,4.73
2018-04-25T00:40:57.075Z,4.73
2018-04-25T00:43:26.146Z,4.90
2018-04-25T00:45:54.502Z,4.63
2018-04-25T00:48:22.803Z,4.50
2018-04-25T00:50:51.107Z,4.60
2018-04-25T00:53:20.177Z,3.90
2018-04-25T00:55:48.468Z,4.10
2018-04-25T00:58:17.817Z,4.03
2018-04-25T01:00:46.108Z,4.10
2018-04-25T01:03:14.593Z,4.60
2018-04-25T01:05:43.691Z,4.40
2018-04-25T01:08:11.981Z,4.63
2018-04-25T01:10:40.277Z,4.07
2018-04-25T01:13:09.624Z,4.17
2018-04-25T01:15:37.923Z,4.23
2018-04-25T01:18:06.215Z,4.57
2018-04-25T01:20:35.305Z,4.27
2018-04-25T01:23:08.185Z,4.73
2018-04-25T01:25:37.605Z,4.23
2018-04-25T01:28:09.166Z,4.43
2018-04-25T01:30:40.805Z,3.90
2018-04-25T01:33:09.222Z,4.70
2018-04-25T01:35:37.492Z,4.30
2018-04-25T01:38:06.516Z,4.17
2018-04-25T01:40:34.810Z,4.50
2018-04-25T01:43:08.879Z,4.50
2018-04-25T01:45:37.312Z,4.40
2018-04-25T01:48:11.434Z,4.70
2018-04-25T01:50:40.495Z,4.80
2018-04-25T01:53:20.623Z,4.93
2018-04-25T01:56:00.591Z,5.07
2018-04-25T01:58:40.680Z,5.47
2018-04-25T02:01:20.119Z,5.50
2018-04-25T02:04:00.713Z,5.67
2018-04-25T02:06:28.997Z,5.53
2018-04-25T02:08:57.288Z,5.60
2018-04-25T02:11:25.590Z,5.80
2018-04-25T02:13:54.105Z,5.80
2018-04-25T02:16:22.404Z,6.70
2018-04-25T02:18:50.709Z,7.57
2018-04-25T02:21:19.011Z,6.93
2018-04-25T02:23:48.084Z,7.53
2018-04-25T02:26:16.395Z,7.57
2018-04-25T02:28:44.686Z,8.13
2018-04-25T02:31:13.235Z,7.63
2018-04-25T02:33:42.287Z,7.90
2018-04-25T02:36:10.588Z,6.97
2018-04-25T02:38:38.912Z,7.20
2018-04-25T02:41:07.217Z,7.40
2018-04-25T02:43:35.530Z,7.27
2018-04-25T02:46:04.667Z,8.13
2018-04-25T02:48:33.445Z,7.23
2018-04-25T02:51:01.752Z,6.93
2018-04-25T02:53:30.059Z,7.57
2018-04-25T02:55:59.118Z,6.80
2018-04-25T02:58:27.443Z,7.07
2018-04-25T03:00:55.740Z,7.50
2018-04-25T03:03:24.053Z,6.27
2018-04-25T03:05:52.419Z,6.73
2018-04-25T03:08:20.738Z,6.60
2018-04-25T03:10:49.788Z,7.37
2018-04-25T03:13:18.243Z,6.77
2018-04-25T03:15:46.519Z,6.63
2018-04-25T03:18:14.823Z,6.53
2018-04-25T03:20:43.111Z,7.40
2018-04-25T03:23:11.420Z,6.37
2018-04-25T03:25:40.070Z,6.40
2018-04-25T03:28:08.370Z,6.10
2018-04-25T03:30:37.436Z,6.13
2018-04-25T03:33:05.747Z,6.33
2018-04-25T03:35:34.807Z,6.20
2018-04-25T03:38:03.101Z,6.43
2018-04-25T03:40:32.175Z,6.10
2018-04-25T03:43:00.468Z,6.50
2018-04-25T03:45:29.065Z,6.90
2018-04-25T03:47:57.374Z,6.83
2018-04-25T03:50:25.911Z,6.40
2018-04-25T03:52:54.192Z,6.33
2018-04-25T03:55:23.238Z,6.60
2018-04-25T03:57:51.565Z,6.53
2018-04-25T04:00:20.621Z,6.50
2018-04-25T04:02:48.946Z,6.53
2018-04-25T04:05:17.239Z,6.50
2018-04-25T04:07:45.551Z,6.00
2018-04-25T04:10:13.840Z,6.97
2018-04-25T04:12:42.151Z,7.20
2018-04-25T04:15:10.441Z,6.20
2018-04-25T04:17:38.726Z,6.33
2018-04-25T04:20:07.024Z,6.87
2018-04-25T04:22:35.322Z,6.90
2018-04-25T04:25:03.655Z,6.63
2018-04-25T04:27:32.268Z,6.53
2018-04-25T04:30:00.568Z,6.10
2018-04-25T04:32:29.632Z,6.13
2018-04-25T04:34:57.931Z,6.87
2018-04-25T04:37:26.987Z,5.93
2018-04-25T04:39:55.280Z,6.53
2018-04-25T04:42:23.581Z,6.37
2018-04-25T04:44:52.637Z,6.27
2018-04-25T04:47:20.955Z,6.20
2018-04-25T04:49:50.012Z,5.53
2018-04-25T04:52:18.289Z,6.00
2018-04-25T04:54:46.598Z,6.10
2018-04-25T04:57:15.671Z,6.30
2018-04-25T04:59:44.018Z,6.13
2018-04-25T05:02:13.030Z,6.30
2018-04-25T05:04:41.340Z,6.03
2018-04-25T05:07:10.380Z,6.47
2018-04-25T05:09:38.712Z,6.23
2018-04-25T05:12:07.755Z,6.87
2018-04-25T05:14:36.065Z,6.27
2018-04-25T05:17:05.311Z,6.40
2018-04-25T05:19:33.633Z,5.80
2018-04-25T05:22:02.034Z,6.40
2018-04-25T05:24:30.437Z,6.53
2018-04-25T05:26:59.441Z,6.77
2018-04-25T05:29:27.730Z,6.90
2018-04-25T05:31:56.894Z,6.63
2018-04-25T05:34:25.111Z,6.27
2018-04-25T05:36:53.429Z,6.77
2018-04-25T05:39:21.753Z,6.77
2018-04-25T05:41:50.878Z,6.40
2018-04-25T05:44:19.952Z,7.20
2018-04-25T05:46:48.253Z,7.30
2018-04-25T05:49:16.662Z,7.03
2018-04-25T05:51:45.042Z,6.77
2018-04-25T05:54:13.280Z,7.47
2018-04-25T05:56:41.839Z,7.60
2018-04-25T05:59:10.132Z,7.20
2018-04-25T06:01:39.188Z,6.57
2018-04-25T06:04:07.788Z,6.97
2018-04-25T06:06:36.839Z,6.60
2018-04-25T06:09:05.731Z,7.60
2018-04-25T06:11:34.043Z,6.97
2018-04-25T06:14:02.494Z,6.77
2018-04-25T06:16:30.790Z,7.27
2018-04-25T06:18:59.087Z,6.30
2018-04-25T06:21:28.164Z,6.13
2018-04-25T06:23:56.448Z,6.50
2018-04-25T06:26:25.545Z,6.03
2018-04-25T06:28:54.600Z,6.27
2018-04-25T06:31:22.934Z,6.53
2018-04-25T06:33:51.231Z,5.73
2018-04-25T06:36:19.831Z,6.17
2018-04-25T06:38:48.132Z,5.90
2018-04-25T06:41:16.424Z,5.97
2018-04-25T06:43:45.518Z,6.07
2018-04-25T06:46:14.574Z,5.83
2018-04-25T06:48:42.881Z,6.17
2018-04-25T06:51:11.195Z,5.20
2018-04-25T06:53:39.494Z,5.80
2018-04-25T06:56:07.809Z,5.73
2018-04-25T06:58:36.148Z,5.10
2018-04-25T07:01:04.446Z,5.73
2018-04-25T07:03:32.755Z,5.30
2018-04-25T07:06:01.809Z,5.87
2018-04-25T07:08:30.503Z,5.83
2018-04-25T07:10:58.805Z,5.37
2018-04-25T07:13:27.898Z,5.10
2018-04-25T07:15:57.039Z,5.13
2018-04-25T07:18:25.610Z,5.67
2018-04-25T07:20:53.903Z,5.50
2018-04-25T07:23:22.191Z,5.40
2018-04-25T07:25:50.519Z,5.87
2018-04-25T07:28:18.836Z,5.63
2018-04-25T07:30:47.166Z,4.83
2018-04-25T07:33:15.467Z,6.40
2018-04-25T07:35:44.010Z,5.10
2018-04-25T07:38:13.084Z,5.53
2018-04-25T07:40:41.383Z,4.77
2018-04-25T07:43:10.456Z,5.67
2018-04-25T07:45:39.532Z,5.33
2018-04-25T07:48:08.639Z,5.40
2018-04-25T07:50:36.938Z,5.43
2018-04-25T07:53:06.259Z,5.03
2018-04-25T07:55:34.539Z,4.73
2018-04-25T07:58:02.831Z,4.90
2018-04-25T08:00:31.163Z,4.90
2018-04-25T08:03:00.233Z,5.20
2018-04-25T08:05:29.312Z,4.50
2018-04-25T08:07:57.602Z,4.93
2018-04-25T08:10:26.705Z,5.00
2018-04-25T08:13:07.771Z,4.83
2018-04-25T08:15:47.985Z,4.90
2018-04-25T08:18:28.695Z,5.23
2018-04-25T08:24:13.064Z,5.50
2018-04-25T08:26:41.446Z,5.10
2018-04-25T08:29:10.016Z,5.13
2018-04-25T08:31:38.319Z,5.10
2018-04-25T08:34:07.376Z,5.33
2018-04-25T08:36:35.682Z,5.27
2018-04-25T08:39:05.622Z,5.67
2018-04-25T08:41:35.110Z,5.57
2018-04-25T08:44:03.420Z,5.27
2018-04-25T08:46:31.728Z,5.13
2018-04-25T08:49:00.835Z,5.30
2018-04-25T08:51:29.886Z,5.10
2018-04-25T08:53:58.219Z,5.27
2018-04-25T08:56:27.273Z,4.87
2018-04-25T08:58:55.599Z,4.57
2018-04-25T09:01:24.669Z,4.50
2018-04-25T09:03:53.236Z,4.80
2018-04-25T09:06:21.574Z,4.43
2018-04-25T09:08:49.868Z,4.53
2018-04-25T09:11:18.176Z,4.03
2018-04-25T09:13:47.261Z,4.10
2018-04-25T09:16:15.571Z,3.50
2018-04-25T09:18:43.899Z,3.80
2018-04-25T09:21:12.220Z,3.67
2018-04-25T09:23:41.287Z,3.73
2018-04-25T09:26:09.598Z,3.90
2018-04-25T09:28:37.891Z,3.47
2018-04-25T09:31:06.362Z,3.30
2018-04-25T09:33:34.629Z,3.50
2018-04-25T09:36:02.935Z,3.77
2018-04-25T09:38:31.255Z,4.10
2018-04-25T09:41:00.637Z,3.93
2018-04-25T09:43:28.998Z,3.60
2018-04-25T09:45:57.300Z,3.83
2018-04-25T09:48:25.591Z,3.53
2018-04-25T09:50:54.658Z,4.20
2018-04-25T09:53:23.731Z,4.00
2018-04-25T09:55:52.024Z,3.63
2018-04-25T09:58:21.083Z,3.80
2018-04-25T10:00:55.134Z,3.90
2018-04-25T10:03:23.685Z,2.97
2018-04-25T10:05:51.999Z,2.87
2018-04-25T10:08:20.315Z,2.63
2018-04-25T10:10:48.614Z,2.47
2018-04-25T10:13:16.954Z,2.70
2018-04-25T10:15:46.363Z,2.80
2018-04-25T10:18:15.845Z,3.00
2018-04-25T10:23:19.659Z,2.63
2018-04-25T10:25:48.746Z,3.60
2018-04-25T10:28:17.038Z,3.80
2018-04-25T10:30:46.125Z,3.13
2018-04-25T10:33:15.184Z,3.20
2018-04-25T10:35:43.500Z,3.10
2018-04-25T10:38:12.564Z,2.87
2018-04-25T10:40:41.239Z,2.80
2018-04-25T10:43:09.617Z,2.80
2018-04-25T10:45:38.709Z,3.00
2018-04-25T10:48:07.018Z,2.70
2018-04-25T10:50:36.075Z,2.80
2018-04-25T10:53:04.529Z,3.70
2018-04-25T10:55:32.823Z,3.40
2018-04-25T10:58:01.119Z,2.90
2018-04-25T11:00:30.181Z,2.87
2018-04-25T11:02:58.787Z,3.10
2018-04-25T11:05:27.098Z,3.00
2018-04-25T11:07:56.176Z,2.80
2018-04-25T11:10:24.484Z,3.33
2018-04-25T11:12:52.781Z,3.00
2018-04-25T11:15:21.083Z,3.20
2018-04-25T11:17:49.474Z,3.57
2018-04-25T11:20:18.147Z,3.13
2018-04-25T11:22:47.125Z,3.80
2018-04-25T11:25:16.191Z,3.77
2018-04-25T11:27:46.125Z,3.93
2018-04-25T11:30:20.359Z,2.90
2018-04-25T11:32:48.655Z,3.57
2018-04-25T11:35:17.716Z,3.23
2018-04-25T11:37:46.027Z,3.10
2018-04-25T11:40:15.365Z,3.40
2018-04-25T11:42:43.652Z,3.13
2018-04-25T11:45:11.936Z,3.50
2018-04-25T11:47:40.246Z,3.33
2018-04-25T11:50:08.517Z,3.40
2018-04-25T11:52:37.584Z,3.17
2018-04-25T11:55:05.873Z,2.77
2018-04-25T11:57:34.197Z,2.73
2018-04-25T12:00:03.271Z,2.60
2018-04-25T12:02:32.353Z,2.60
2018-04-25T12:05:00.705Z,2.27
2018-04-25T12:07:29.254Z,2.20
2018-04-25T12:09:57.553Z,2.37
2018-04-25T12:12:25.836Z,2.37
2018-04-25T12:14:54.140Z,2.33
2018-04-25T12:17:23.327Z,2.27
2018-04-25T12:19:51.619Z,2.10
2018-04-25T12:22:20.674Z,2.20
2018-04-25T12:24:49.000Z,2.07
2018-04-25T12:27:18.120Z,2.30
2018-04-25T12:29:46.425Z,2.20
2018-04-25T12:32:14.724Z,1.93
2018-04-25T12:34:43.054Z,2.23
2018-04-25T12:37:11.621Z,2.40
2018-04-25T12:39:40.687Z,2.00
2018-04-25T12:42:09.771Z,2.30
2018-04-25T12:44:38.047Z,2.17
2018-04-25T12:47:07.233Z,2.50
2018-04-25T12:49:35.588Z,1.80
2018-04-25T12:52:03.943Z,2.20
2018-04-25T12:54:32.246Z,1.97
2018-04-25T12:57:00.563Z,1.60
2018-04-25T12:59:29.616Z,2.30
2018-04-25T13:01:57.905Z,2.30
2018-04-25T13:04:26.192Z,2.67
2018-04-25T13:06:55.265Z,2.10
2018-04-25T13:09:23.556Z,2.20
2018-04-25T13:11:51.864Z,2.30
2018-04-25T13:14:20.499Z,2.10
2018-04-25T13:16:49.839Z,2.10
2018-04-25T13:19:18.876Z,2.20
2018-04-25T13:21:47.169Z,2.37
2018-04-25T13:24:15.457Z,2.23
2018-04-25T13:26:43.776Z,2.13
2018-04-25T13:29:12.065Z,2.00
2018-04-25T13:31:40.348Z,2.07
2018-04-25T13:34:08.658Z,2.10
2018-04-25T13:36:36.956Z,2.27
2018-04-25T13:39:05.993Z,2.00
2018-04-25T13:41:35.072Z,1.97
2018-04-25T13:44:03.388Z,2.60
2018-04-25T13:46:31.663Z,2.00
2018-04-25T13:49:00.736Z,2.40
2018-04-25T13:51:29.036Z,2.00
2018-04-25T13:53:57.618Z,2.10
2018-04-25T13:56:26.030Z,2.03
2018-04-25T13:58:55.193Z,2.20
2018-04-25T14:01:24.255Z,1.97
2018-04-25T14:03:52.547Z,1.90
2018-04-25T14:06:20.864Z,1.90
2018-04-25T14:08:49.931Z,2.00
2018-04-25T14:11:18.277Z,2.00
2018-04-25T14:13:46.720Z,1.80
2018-04-25T14:16:15.149Z,1.70
2018-04-25T14:18:43.421Z,1.73
2018-04-25T14:21:11.730Z,1.93
2018-04-25T14:23:40.260Z,1.80
2018-04-25T14:26:08.540Z,2.10
2018-04-25T14:28:37.252Z,1.73
2018-04-25T14:31:05.540Z,1.70
2018-04-25T14:33:33.839Z,1.57
2018-04-25T14:36:02.907Z,1.10
2018-04-25T14:38:31.196Z,1.20
2018-04-25T14:41:00.274Z,1.17
2018-04-25T14:43:28.654Z,1.00
2018-04-25T14:45:57.939Z,0.97
2018-04-25T14:48:26.327Z,0.90
2018-04-25T14:50:54.644Z,0.90
2018-04-25T14:53:22.931Z,1.00
2018-04-25T14:55:51.372Z,0.87
2018-04-25T14:58:19.943Z,0.90
2018-04-25T15:00:48.255Z,0.97
2018-04-25T15:03:17.598Z,0.80
2018-04-25T15:05:45.881Z,0.93
2018-04-25T15:08:14.963Z,1.00
2018-04-25T15:10:43.523Z,0.80
2018-04-25T15:13:11.820Z,1.20
2018-04-25T15:15:40.861Z,1.00
2018-04-25T15:18:09.164Z,1.00
2018-04-25T15:20:37.479Z,1.50
2018-04-25T15:23:06.539Z,1.00
2018-04-25T15:25:34.827Z,1.47
2018-04-25T15:28:04.132Z,1.30
2018-04-25T15:30:32.436Z,1.33
2018-04-25T15:33:01.499Z,1.20
2018-04-25T15:35:29.801Z,1.20
2018-04-25T15:37:58.896Z,1.30
2018-04-25T15:40:27.159Z,1.27
2018-04-25T15:42:55.443Z,1.07
2018-04-25T15:45:24.547Z,1.10
2018-04-25T15:47:52.855Z,1.40
2018-04-25T15:50:21.164Z,1.30
2018-04-25T15:52:49.469Z,1.10
2018-04-25T15:55:17.802Z,0.97
2018-04-25T15:58:00.697Z,0.83
2018-04-25T16:00:36.014Z,0.80
2018-04-25T16:03:17.777Z,0.90
2018-04-25T16:05:47.228Z,0.90
2018-04-25T16:08:15.506Z,0.80
2018-04-25T16:10:43.798Z,1.00
2018-04-25T16:13:12.118Z,1.10
2018-04-25T16:15:41.282Z,0.90
2018-04-25T16:18:09.773Z,0.90
2018-04-25T16:20:38.065Z,1.10
2018-04-25T16:23:06.371Z,1.00
2018-04-25T16:25:34.653Z,0.87
2018-04-25T16:28:03.184Z,0.90
2018-04-25T16:30:32.266Z,1.00
2018-04-25T16:33:00.593Z,1.00
2018-04-25T16:35:30.609Z,0.90
2018-04-25T16:37:59.155Z,0.80
2018-04-25T16:40:27.483Z,0.70
2018-04-25T16:42:55.802Z,0.70
2018-04-25T16:45:24.136Z,0.93
2018-04-25T16:47:52.795Z,0.77
2018-04-25T16:50:21.142Z,0.70
2018-04-25T16:52:49.443Z,1.20
2018-04-25T16:55:18.522Z,0.80
2018-04-25T16:57:47.591Z,0.73
2018-04-25T17:00:15.916Z,0.90
2018-04-25T17:02:44.980Z,1.00
2018-04-25T17:05:14.082Z,0.90
2018-04-25T17:07:43.182Z,0.93
2018-04-25T17:10:12.257Z,0.93
2018-04-25T17:12:40.573Z,0.80
2018-04-25T17:15:14.951Z,1.00
2018-04-25T17:17:49.370Z,0.70
2018-04-25T17:20:23.812Z,0.83
2018-04-25T17:22:58.206Z,0.80
2018-04-25T17:25:32.519Z,0.80
2018-04-25T17:28:06.793Z,0.70
2018-04-25T17:30:35.111Z,0.70
2018-04-25T17:33:03.384Z,0.80
2018-04-25T17:35:31.673Z,0.90
2018-04-25T17:37:59.992Z,0.90
2018-04-25T17:40:28.362Z,1.00
2018-04-25T17:42:57.007Z,0.90
2018-04-25T17:45:26.070Z,0.80
2018-04-25T17:47:55.240Z,0.70
2018-04-25T17:50:23.568Z,0.80
2018-04-25T17:52:52.629Z,0.77
2018-04-25T17:55:20.947Z,1.00
2018-04-25T17:57:50.005Z,0.90
2018-04-25T18:00:18.307Z,1.00
2018-04-25T18:02:46.678Z,0.90
2018-04-25T18:05:21.037Z,1.00
2018-04-25T18:07:55.310Z,1.10
2018-04-25T18:10:29.624Z,0.80
2018-04-25T18:13:04.993Z,1.00
2018-04-25T18:15:39.468Z,1.37
2018-04-25T18:18:13.772Z,1.13
2018-04-25T18:20:48.104Z,1.07
2018-04-25T18:23:22.636Z,0.90
2018-04-25T18:25:57.676Z,1.00
2018-04-25T18:28:32.379Z,0.83
2018-04-25T18:31:06.717Z,0.90
2018-04-25T18:33:41.333Z,1.20
2018-04-25T18:36:15.538Z,1.10
2018-04-25T18:38:49.969Z,1.10
2018-04-25T18:41:24.378Z,0.87
2018-04-25T18:43:59.037Z,1.20
2018-04-25T18:46:34.063Z,1.30
2018-04-25T18:49:08.615Z,1.13
2018-04-25T18:51:42.902Z,1.10
2018-04-25T18:54:18.233Z,0.90
2018-04-25T18:56:53.259Z,1.10
2018-04-25T18:59:27.573Z,1.03
2018-04-25T19:02:01.985Z,1.20
2018-04-25T19:04:36.181Z,0.90
2018-04-25T19:07:10.429Z,1.20
2018-04-25T19:09:44.841Z,1.10
2018-04-25T19:12:20.000Z,0.97
2018-04-25T19:14:54.203Z,1.00
2018-04-25T19:17:28.484Z,1.10
2018-04-25T19:20:02.743Z,1.03
2018-04-25T19:25:17.737Z,1.10
2018-04-25T19:27:52.201Z,1.37
2018-04-25T19:30:27.253Z,1.23
2018-04-25T19:33:01.587Z,1.10
2018-04-25T19:35:36.184Z,0.93
2018-04-25T19:38:10.698Z,1.20
2018-04-25T19:40:45.055Z,1.20
2018-04-25T19:43:19.368Z,1.10
2018-04-25T19:45:53.491Z,1.37
2018-04-25T19:48:27.664Z,1.10
2018-04-25T19:51:01.826Z,1.13
2018-04-25T19:53:35.965Z,1.20
2018-04-25T19:56:10.102Z,1.00
2018-04-25T19:58:45.343Z,1.27
2018-04-25T20:01:19.759Z,1.00
2018-04-25T20:03:54.780Z,1.20
2018-04-25T20:06:29.232Z,1.20
2018-04-25T20:09:04.255Z,1.20
2018-04-25T20:11:39.374Z,1.40
2018-04-25T20:14:13.796Z,1.20
2018-04-25T20:16:48.078Z,1.23
2018-04-25T20:19:22.611Z,1.00
2018-04-25T20:21:56.846Z,1.00
2018-04-25T20:24:31.192Z,1.57
2018-04-25T20:27:05.462Z,1.20
2018-04-25T20:29:39.956Z,1.30
2018-04-25T20:32:14.945Z,1.23
2018-04-25T20:34:49.387Z,1.10
2018-04-25T20:37:23.603Z,1.30
2018-04-25T20:39:58.617Z,1.20
2018-04-25T20:42:32.837Z,1.40
2018-04-25T20:45:07.263Z,1.23
2018-04-25T20:47:41.543Z,1.30
2018-04-25T20:50:15.791Z,1.20
2018-04-25T20:52:50.211Z,1.33
2018-04-25T20:55:24.459Z,1.30
2018-04-25T20:57:58.924Z,1.60
2018-04-25T21:00:33.236Z,1.30
2018-04-25T21:03:07.689Z,1.60
2018-04-25T21:05:41.910Z,1.23
2018-04-25T21:08:16.096Z,1.40
2018-04-25T21:10:50.325Z,1.40
2018-04-25T21:13:24.985Z,1.40
2018-04-25T21:15:59.226Z,1.47
2018-04-25T21:18:33.575Z,1.37
2018-04-25T21:21:08.575Z,1.40
2018-04-25T21:23:42.896Z,1.30
2018-04-25T21:26:17.115Z,1.50
2018-04-25T21:28:51.634Z,1.50
2018-04-25T21:31:26.034Z,1.33
2018-04-25T21:34:00.504Z,1.40
2018-04-25T21:36:34.782Z,1.37
2018-04-25T21:39:09.305Z,1.50
2018-04-25T21:41:43.726Z,1.50
2018-04-25T21:44:17.942Z,1.30
2018-04-25T21:46:52.117Z,1.73
2018-04-25T21:49:26.779Z,1.67
2018-04-25T21:52:01.071Z,1.60
2018-04-25T21:54:36.362Z,1.70
2018-04-25T21:57:11.604Z,1.47
2018-04-25T21:59:45.979Z,1.60
2018-04-25T22:02:20.947Z,1.70
2018-04-25T22:04:55.243Z,1.60
2018-04-25T22:07:29.636Z,1.60
2018-04-25T22:10:03.856Z,1.40
2018-04-25T22:12:38.151Z,1.40
2018-04-25T22:15:13.787Z,1.50
2018-04-25T22:17:48.829Z,1.60
2018-04-25T22:20:24.045Z,1.60
2018-04-25T22:22:58.768Z,1.67
2018-04-25T22:25:33.139Z,1.50
2018-04-25T22:28:07.691Z,1.60
2018-04-25T22:30:41.952Z,2.13
2018-04-25T22:33:16.419Z,1.60
2018-04-25T22:35:50.656Z,2.00
2018-04-25T22:38:25.655Z,1.70
2018-04-25T22:41:00.179Z,1.73
2018-04-25T22:43:34.425Z,1.80
2018-04-25T22:46:08.633Z,2.20
2018-04-25T22:48:43.022Z,2.40
2018-04-25T22:51:17.452Z,2.03
2018-04-25T22:53:51.888Z,2.10
2018-04-25T22:56:26.321Z,2.00
2018-04-25T22:59:01.319Z,2.10
2018-04-25T23:01:36.056Z,2.27
2018-04-25T23:04:11.079Z,2.13
2018-04-25T23:06:45.510Z,2.37
2018-04-25T23:09:20.543Z,2.30
2018-04-25T23:11:55.282Z,2.20
2018-04-25T23:14:30.305Z,2.30
2018-04-25T23:17:04.920Z,2.23
2018-04-25T23:19:39.973Z,2.30
2018-04-25T23:22:14.353Z,2.50
2018-04-25T23:24:49.399Z,2.13
2018-04-25T23:27:23.700Z,2.50
2018-04-25T23:29:58.194Z,2.40
2018-04-25T23:32:32.652Z,2.37
2018-04-25T23:35:06.904Z,2.00
2018-04-25T23:37:44.221Z,2.70
2018-04-25T23:40:18.551Z,2.37
2018-04-25T23:42:52.892Z,2.53
2018-04-25T23:45:27.155Z,2.30
2018-04-25T23:48:02.250Z,2.20
2018-04-25T23:50:37.251Z,2.30
2018-04-25T23:53:11.503Z,2.27
2018-04-25T23:55:46.464Z,2.43
2018-04-25T23:58:20.815Z,2.10
